sensor_id;sensor_type;location;lat;lon;timestamp;P1;durP1;ratioP1;P2;durP2;ratioP2
53389;SDS011;39288;42.970;1.524;2022-11-20T00:00:52;6.43;;;1.63;;
53389;SDS011;39288;42.970;1.524;2022-11-20T00:01:52;3.17;;;1.00;;
53389;SDS011;39288;42.970;1.524;2022-11-20T00:02:53;3.30;;;1.15;;
53389;SDS011;39288;42.970;1.524;2022-11-20T00:03:54;5.00;;;1.60;;
53389;SDS011;39288;42.970;1.524;2022-11-20T00:05:59;4.45;;;1.45;;
53389;SDS011;39288;42.970;1.524;2022-11-20T00:07:01;4.00;;;1.27;;
53389;SDS011;39288;42.970;1.524;2022-11-20T00:08:01;7.63;;;1.90;;
53389;SDS011;39288;42.970;1.524;2022-11-20T00:09:02;1.70;;;1.13;;
53389;SDS011;39288;42.970;1.524;2022-11-20T00:10:02;1.93;;;0.60;;
53389;SDS011;39288;42.970;1.524;2022-11-20T00:11:04;2.20;;;0.60;;
53389;SDS011;39288;42.970;1.524;2022-11-20T00:12:05;3.75;;;1.98;;
53389;SDS011;39288;42.970;1.524;2022-11-20T00:13:06;4.77;;;1.50;;
53389;SDS011;39288;42.970;1.524;2022-11-20T00:14:08;4.00;;;2.03;;
53389;SDS011;39288;42.970;1.524;2022-11-20T00:15:10;2.80;;;1.10;;
53389;SDS011;39288;42.970;1.524;2022-11-20T00:16:11;1.83;;;1.27;;
53389;SDS011;39288;42.970;1.524;2022-11-20T00:17:12;2.85;;;1.23;;
53389;SDS011;39288;42.970;1.524;2022-11-20T00:18:12;6.23;;;1.10;;
53389;SDS011;39288;42.970;1.524;2022-11-20T00:19:13;1.53;;;0.60;;
53389;SDS011;39288;42.970;1.524;2022-11-20T00:20:13;7.07;;;1.23;;
53389;SDS011;39288;42.970;1.524;2022-11-20T00:21:15;6.13;;;1.10;;
53389;SDS011;39288;42.970;1.524;2022-11-20T00:22:23;5.20;;;1.38;;
53389;SDS011;39288;42.970;1.524;2022-11-20T00:23:23;3.17;;;2.70;;
53389;SDS011;39288;42.970;1.524;2022-11-20T00:24:24;2.23;;;2.03;;
53389;SDS011;39288;42.970;1.524;2022-11-20T00:25:24;1.33;;;0.93;;
53389;SDS011;39288;42.970;1.524;2022-11-20T00:26:25;3.00;;;1.27;;
53389;SDS011;39288;42.970;1.524;2022-11-20T00:27:26;3.00;;;1.30;;
53389;SDS011;39288;42.970;1.524;2022-11-20T00:28:27;1.30;;;0.90;;
53389;SDS011;39288;42.970;1.524;2022-11-20T00:29:27;7.43;;;3.40;;
53389;SDS011;39288;42.970;1.524;2022-11-20T00:30:28;22.17;;;1.23;;
53389;SDS011;39288;42.970;1.524;2022-11-20T00:31:29;3.20;;;0.87;;
53389;SDS011;39288;42.970;1.524;2022-11-20T00:32:30;2.80;;;1.40;;
53389;SDS011;39288;42.970;1.524;2022-11-20T00:33:30;2.83;;;1.30;;
53389;SDS011;39288;42.970;1.524;2022-11-20T00:34:31;2.90;;;1.83;;
53389;SDS011;39288;42.970;1.524;2022-11-20T00:35:31;2.90;;;1.30;;
53389;SDS011;39288;42.970;1.524;2022-11-20T00:36:32;3.10;;;1.10;;
53389;SDS011;39288;42.970;1.524;2022-11-20T00:37:33;4.45;;;1.30;;
53389;SDS011;39288;42.970;1.524;2022-11-20T00:38:34;2.07;;;0.93;;
53389;SDS011;39288;42.970;1.524;2022-11-20T00:39:35;1.60;;;1.10;;
53389;SDS011;39288;42.970;1.524;2022-11-20T00:40:36;2.97;;;2.00;;
53389;SDS011;39288;42.970;1.524;2022-11-20T00:41:36;5.03;;;2.72;;
53389;SDS011;39288;42.970;1.524;2022-11-20T00:42:37;5.97;;;1.23;;
53389;SDS011;39288;42.970;1.524;2022-11-20T00:43:37;1.23;;;0.83;;
53389;SDS011;39288;42.970;1.524;2022-11-20T00:44:38;5.03;;;1.33;;
53389;SDS011;39288;42.970;1.524;2022-11-20T00:45:39;1.60;;;0.70;;
53389;SDS011;39288;42.970;1.524;2022-11-20T00:46:40;3.75;;;2.45;;
53389;SDS011;39288;42.970;1.524;2022-11-20T00:47:40;4.73;;;2.33;;
53389;SDS011;39288;42.970;1.524;2022-11-20T00:48:41;3.90;;;3.23;;
53389;SDS011;39288;42.970;1.524;2022-11-20T00:49:42;4.33;;;1.80;;
53389;SDS011;39288;42.970;1.524;2022-11-20T00:50:42;5.27;;;1.50;;
53389;SDS011;39288;42.970;1.524;2022-11-20T00:51:43;2.58;;;1.08;;
53389;SDS011;39288;42.970;1.524;2022-11-20T00:52:43;0.83;;;0.50;;
53389;SDS011;39288;42.970;1.524;2022-11-20T00:53:44;3.40;;;1.13;;
53389;SDS011;39288;42.970;1.524;2022-11-20T00:54:45;3.23;;;0.80;;
53389;SDS011;39288;42.970;1.524;2022-11-20T00:56:55;3.72;;;2.05;;
53389;SDS011;39288;42.970;1.524;2022-11-20T00:57:56;4.63;;;2.20;;
53389;SDS011;39288;42.970;1.524;2022-11-20T00:58:58;4.60;;;2.80;;
53389;SDS011;39288;42.970;1.524;2022-11-20T00:59:59;4.00;;;2.65;;
53389;SDS011;39288;42.970;1.524;2022-11-20T01:01:00;3.93;;;2.00;;
53389;SDS011;39288;42.970;1.524;2022-11-20T01:02:02;2.53;;;0.90;;
53389;SDS011;39288;42.970;1.524;2022-11-20T01:03:02;2.93;;;1.23;;
53389;SDS011;39288;42.970;1.524;2022-11-20T01:04:03;2.47;;;1.10;;
53389;SDS011;39288;42.970;1.524;2022-11-20T01:05:03;3.00;;;1.20;;
53389;SDS011;39288;42.970;1.524;2022-11-20T01:06:14;4.10;;;1.20;;
53389;SDS011;39288;42.970;1.524;2022-11-20T01:07:22;3.63;;;1.67;;
53389;SDS011;39288;42.970;1.524;2022-11-20T01:08:22;4.47;;;1.57;;
53389;SDS011;39288;42.970;1.524;2022-11-20T01:09:23;3.93;;;1.30;;
53389;SDS011;39288;42.970;1.524;2022-11-20T01:10:23;3.77;;;1.30;;
53389;SDS011;39288;42.970;1.524;2022-11-20T01:11:27;3.47;;;1.50;;
53389;SDS011;39288;42.970;1.524;2022-11-20T01:12:29;2.35;;;1.30;;
53389;SDS011;39288;42.970;1.524;2022-11-20T01:13:30;3.30;;;1.30;;
53389;SDS011;39288;42.970;1.524;2022-11-20T01:14:37;3.70;;;1.60;;
53389;SDS011;39288;42.970;1.524;2022-11-20T01:15:37;4.30;;;1.70;;
53389;SDS011;39288;42.970;1.524;2022-11-20T01:16:39;5.77;;;1.57;;
53389;SDS011;39288;42.970;1.524;2022-11-20T01:17:41;12.82;;;3.13;;
53389;SDS011;39288;42.970;1.524;2022-11-20T01:18:42;4.90;;;1.90;;
53389;SDS011;39288;42.970;1.524;2022-11-20T01:19:44;3.47;;;1.58;;
53389;SDS011;39288;42.970;1.524;2022-11-20T01:20:45;3.50;;;1.57;;
53389;SDS011;39288;42.970;1.524;2022-11-20T01:21:46;9.47;;;3.77;;
53389;SDS011;39288;42.970;1.524;2022-11-20T01:22:48;6.03;;;2.40;;
53389;SDS011;39288;42.970;1.524;2022-11-20T01:23:49;3.80;;;1.80;;
53389;SDS011;39288;42.970;1.524;2022-11-20T01:24:50;4.22;;;2.28;;
53389;SDS011;39288;42.970;1.524;2022-11-20T01:25:50;2.33;;;1.43;;
53389;SDS011;39288;42.970;1.524;2022-11-20T01:26:51;3.13;;;1.53;;
53389;SDS011;39288;42.970;1.524;2022-11-20T01:27:52;2.87;;;1.20;;
53389;SDS011;39288;42.970;1.524;2022-11-20T01:28:55;5.67;;;1.33;;
53389;SDS011;39288;42.970;1.524;2022-11-20T01:29:58;3.22;;;1.40;;
53389;SDS011;39288;42.970;1.524;2022-11-20T01:30:58;4.83;;;1.80;;
53389;SDS011;39288;42.970;1.524;2022-11-20T01:31:59;2.33;;;1.17;;
53389;SDS011;39288;42.970;1.524;2022-11-20T01:32:59;2.30;;;1.17;;
53389;SDS011;39288;42.970;1.524;2022-11-20T01:34:04;3.10;;;0.90;;
53389;SDS011;39288;42.970;1.524;2022-11-20T01:35:06;2.33;;;1.02;;
53389;SDS011;39288;42.970;1.524;2022-11-20T01:36:06;2.77;;;1.17;;
53389;SDS011;39288;42.970;1.524;2022-11-20T01:37:08;1.20;;;0.70;;
53389;SDS011;39288;42.970;1.524;2022-11-20T01:38:08;3.00;;;0.87;;
53389;SDS011;39288;42.970;1.524;2022-11-20T01:39:13;2.87;;;0.90;;
53389;SDS011;39288;42.970;1.524;2022-11-20T01:40:15;1.55;;;1.08;;
53389;SDS011;39288;42.970;1.524;2022-11-20T01:41:15;3.13;;;1.67;;
53389;SDS011;39288;42.970;1.524;2022-11-20T01:42:34;4.63;;;1.95;;
53389;SDS011;39288;42.970;1.524;2022-11-20T01:43:53;3.05;;;1.05;;
53389;SDS011;39288;42.970;1.524;2022-11-20T01:46:17;3.83;;;2.13;;
53389;SDS011;39288;42.970;1.524;2022-11-20T01:47:22;7.70;;;3.85;;
53389;SDS011;39288;42.970;1.524;2022-11-20T01:48:32;8.98;;;4.55;;
53389;SDS011;39288;42.970;1.524;2022-11-20T01:49:37;5.35;;;2.63;;
53389;SDS011;39288;42.970;1.524;2022-11-20T01:50:40;6.78;;;3.42;;
53389;SDS011;39288;42.970;1.524;2022-11-20T01:52:44;6.25;;;3.72;;
53389;SDS011;39288;42.970;1.524;2022-11-20T01:53:47;6.88;;;3.22;;
53389;SDS011;39288;42.970;1.524;2022-11-20T01:54:49;6.82;;;4.15;;
53389;SDS011;39288;42.970;1.524;2022-11-20T01:55:58;5.93;;;2.90;;
53389;SDS011;39288;42.970;1.524;2022-11-20T01:57:00;6.43;;;3.03;;
53389;SDS011;39288;42.970;1.524;2022-11-20T01:58:01;5.17;;;3.27;;
53389;SDS011;39288;42.970;1.524;2022-11-20T01:59:03;6.97;;;3.58;;
53389;SDS011;39288;42.970;1.524;2022-11-20T02:00:06;4.68;;;2.17;;
53389;SDS011;39288;42.970;1.524;2022-11-20T02:01:12;4.32;;;2.35;;
53389;SDS011;39288;42.970;1.524;2022-11-20T02:02:13;3.75;;;1.60;;
53389;SDS011;39288;42.970;1.524;2022-11-20T02:03:15;4.77;;;1.90;;
53389;SDS011;39288;42.970;1.524;2022-11-20T02:04:17;5.35;;;1.60;;
53389;SDS011;39288;42.970;1.524;2022-11-20T02:06:38;4.38;;;1.80;;
53389;SDS011;39288;42.970;1.524;2022-11-20T02:07:43;3.05;;;1.63;;
53389;SDS011;39288;42.970;1.524;2022-11-20T02:08:43;6.07;;;2.13;;
53389;SDS011;39288;42.970;1.524;2022-11-20T02:09:44;3.77;;;2.17;;
53389;SDS011;39288;42.970;1.524;2022-11-20T02:10:44;3.37;;;1.83;;
53389;SDS011;39288;42.970;1.524;2022-11-20T02:11:45;7.77;;;2.57;;
53389;SDS011;39288;42.970;1.524;2022-11-20T02:12:45;4.70;;;2.23;;
53389;SDS011;39288;42.970;1.524;2022-11-20T02:14:04;5.28;;;2.60;;
53389;SDS011;39288;42.970;1.524;2022-11-20T02:15:05;5.10;;;2.77;;
53389;SDS011;39288;42.970;1.524;2022-11-20T02:16:08;6.00;;;2.93;;
53389;SDS011;39288;42.970;1.524;2022-11-20T02:17:13;4.97;;;2.92;;
53389;SDS011;39288;42.970;1.524;2022-11-20T02:18:14;5.40;;;3.07;;
53389;SDS011;39288;42.970;1.524;2022-11-20T02:20:23;4.85;;;2.40;;
53389;SDS011;39288;42.970;1.524;2022-11-20T02:21:25;5.23;;;3.17;;
53389;SDS011;39288;42.970;1.524;2022-11-20T02:22:28;4.15;;;2.15;;
53389;SDS011;39288;42.970;1.524;2022-11-20T02:23:32;5.38;;;2.13;;
53389;SDS011;39288;42.970;1.524;2022-11-20T02:24:38;6.25;;;3.10;;
53389;SDS011;39288;42.970;1.524;2022-11-20T02:25:39;5.10;;;1.85;;
53389;SDS011;39288;42.970;1.524;2022-11-20T02:26:52;4.90;;;1.98;;
53389;SDS011;39288;42.970;1.524;2022-11-20T02:27:54;2.60;;;1.58;;
53389;SDS011;39288;42.970;1.524;2022-11-20T02:28:55;5.27;;;1.87;;
53389;SDS011;39288;42.970;1.524;2022-11-20T02:29:57;6.38;;;2.00;;
53389;SDS011;39288;42.970;1.524;2022-11-20T02:31:01;3.42;;;2.22;;
53389;SDS011;39288;42.970;1.524;2022-11-20T02:32:02;3.55;;;2.10;;
53389;SDS011;39288;42.970;1.524;2022-11-20T02:33:03;5.10;;;1.90;;
53389;SDS011;39288;42.970;1.524;2022-11-20T02:34:03;3.10;;;2.00;;
53389;SDS011;39288;42.970;1.524;2022-11-20T02:35:08;3.43;;;1.40;;
53389;SDS011;39288;42.970;1.524;2022-11-20T02:36:17;3.33;;;1.40;;
53389;SDS011;39288;42.970;1.524;2022-11-20T02:37:18;2.27;;;1.17;;
53389;SDS011;39288;42.970;1.524;2022-11-20T02:38:19;4.15;;;1.77;;
53389;SDS011;39288;42.970;1.524;2022-11-20T02:39:20;4.20;;;1.53;;
53389;SDS011;39288;42.970;1.524;2022-11-20T02:40:22;5.50;;;1.67;;
53389;SDS011;39288;42.970;1.524;2022-11-20T02:41:30;3.37;;;1.43;;
53389;SDS011;39288;42.970;1.524;2022-11-20T02:42:31;5.85;;;1.60;;
53389;SDS011;39288;42.970;1.524;2022-11-20T02:43:32;4.07;;;1.30;;
53389;SDS011;39288;42.970;1.524;2022-11-20T02:44:32;5.07;;;2.17;;
53389;SDS011;39288;42.970;1.524;2022-11-20T02:45:33;4.03;;;1.50;;
53389;SDS011;39288;42.970;1.524;2022-11-20T02:46:33;4.53;;;1.73;;
53389;SDS011;39288;42.970;1.524;2022-11-20T02:47:34;3.53;;;1.67;;
53389;SDS011;39288;42.970;1.524;2022-11-20T02:48:34;1.90;;;1.33;;
53389;SDS011;39288;42.970;1.524;2022-11-20T02:49:35;2.30;;;1.13;;
53389;SDS011;39288;42.970;1.524;2022-11-20T02:50:36;3.03;;;1.63;;
53389;SDS011;39288;42.970;1.524;2022-11-20T02:51:37;3.90;;;0.90;;
53389;SDS011;39288;42.970;1.524;2022-11-20T02:52:38;2.70;;;0.93;;
53389;SDS011;39288;42.970;1.524;2022-11-20T02:53:38;1.43;;;0.83;;
53389;SDS011;39288;42.970;1.524;2022-11-20T02:54:39;4.50;;;1.10;;
53389;SDS011;39288;42.970;1.524;2022-11-20T02:55:39;3.97;;;1.00;;
53389;SDS011;39288;42.970;1.524;2022-11-20T02:56:40;4.40;;;1.27;;
53389;SDS011;39288;42.970;1.524;2022-11-20T02:57:40;1.17;;;0.90;;
53389;SDS011;39288;42.970;1.524;2022-11-20T02:58:41;3.30;;;1.20;;
53389;SDS011;39288;42.970;1.524;2022-11-20T02:59:41;2.53;;;1.53;;
53389;SDS011;39288;42.970;1.524;2022-11-20T03:00:42;5.37;;;1.20;;
53389;SDS011;39288;42.970;1.524;2022-11-20T03:01:42;2.20;;;0.87;;
53389;SDS011;39288;42.970;1.524;2022-11-20T03:02:42;1.95;;;0.80;;
53389;SDS011;39288;42.970;1.524;2022-11-20T03:03:43;2.30;;;0.93;;
53389;SDS011;39288;42.970;1.524;2022-11-20T03:04:43;3.57;;;0.80;;
53389;SDS011;39288;42.970;1.524;2022-11-20T03:05:44;4.73;;;0.80;;
53389;SDS011;39288;42.970;1.524;2022-11-20T03:06:44;3.40;;;0.77;;
53389;SDS011;39288;42.970;1.524;2022-11-20T03:07:45;2.13;;;0.80;;
53389;SDS011;39288;42.970;1.524;2022-11-20T03:08:45;4.13;;;1.00;;
53389;SDS011;39288;42.970;1.524;2022-11-20T03:09:46;1.27;;;0.67;;
53389;SDS011;39288;42.970;1.524;2022-11-20T03:10:46;1.10;;;0.67;;
53389;SDS011;39288;42.970;1.524;2022-11-20T03:11:47;2.70;;;1.20;;
53389;SDS011;39288;42.970;1.524;2022-11-20T03:12:47;1.20;;;0.90;;
53389;SDS011;39288;42.970;1.524;2022-11-20T03:13:53;1.98;;;0.93;;
53389;SDS011;39288;42.970;1.524;2022-11-20T03:14:53;2.13;;;1.10;;
53389;SDS011;39288;42.970;1.524;2022-11-20T03:15:54;3.25;;;0.85;;
53389;SDS011;39288;42.970;1.524;2022-11-20T03:16:55;4.23;;;0.97;;
53389;SDS011;39288;42.970;1.524;2022-11-20T03:17:55;2.47;;;1.00;;
53389;SDS011;39288;42.970;1.524;2022-11-20T03:18:56;2.10;;;0.87;;
53389;SDS011;39288;42.970;1.524;2022-11-20T03:19:57;2.33;;;0.70;;
53389;SDS011;39288;42.970;1.524;2022-11-20T03:20:58;4.13;;;0.60;;
53389;SDS011;39288;42.970;1.524;2022-11-20T03:21:59;4.85;;;0.93;;
53389;SDS011;39288;42.970;1.524;2022-11-20T03:23:00;3.30;;;0.70;;
53389;SDS011;39288;42.970;1.524;2022-11-20T03:24:01;1.88;;;0.70;;
53389;SDS011;39288;42.970;1.524;2022-11-20T03:25:02;3.40;;;0.93;;
53389;SDS011;39288;42.970;1.524;2022-11-20T03:27:19;2.25;;;0.60;;
53389;SDS011;39288;42.970;1.524;2022-11-20T03:28:19;2.03;;;0.60;;
53389;SDS011;39288;42.970;1.524;2022-11-20T03:29:20;2.70;;;0.70;;
53389;SDS011;39288;42.970;1.524;2022-11-20T03:30:20;3.27;;;0.70;;
53389;SDS011;39288;42.970;1.524;2022-11-20T03:31:22;3.27;;;0.70;;
53389;SDS011;39288;42.970;1.524;2022-11-20T03:32:24;3.63;;;0.85;;
53389;SDS011;39288;42.970;1.524;2022-11-20T03:33:27;2.77;;;0.67;;
53389;SDS011;39288;42.970;1.524;2022-11-20T03:34:28;2.38;;;0.70;;
53389;SDS011;39288;42.970;1.524;2022-11-20T03:35:28;1.83;;;0.80;;
53389;SDS011;39288;42.970;1.524;2022-11-20T03:36:29;2.87;;;0.97;;
53389;SDS011;39288;42.970;1.524;2022-11-20T03:37:30;1.50;;;0.60;;
53389;SDS011;39288;42.970;1.524;2022-11-20T03:38:30;1.13;;;0.53;;
53389;SDS011;39288;42.970;1.524;2022-11-20T03:39:31;1.77;;;0.73;;
53389;SDS011;39288;42.970;1.524;2022-11-20T03:40:33;3.10;;;0.90;;
53389;SDS011;39288;42.970;1.524;2022-11-20T03:41:38;1.52;;;0.90;;
53389;SDS011;39288;42.970;1.524;2022-11-20T03:42:40;1.92;;;0.90;;
53389;SDS011;39288;42.970;1.524;2022-11-20T03:43:50;1.75;;;0.90;;
53389;SDS011;39288;42.970;1.524;2022-11-20T03:44:51;2.47;;;1.05;;
53389;SDS011;39288;42.970;1.524;2022-11-20T03:45:52;2.80;;;0.80;;
53389;SDS011;39288;42.970;1.524;2022-11-20T03:46:53;3.38;;;0.98;;
53389;SDS011;39288;42.970;1.524;2022-11-20T03:47:53;2.40;;;0.80;;
53389;SDS011;39288;42.970;1.524;2022-11-20T03:48:54;1.00;;;0.60;;
53389;SDS011;39288;42.970;1.524;2022-11-20T03:49:55;3.50;;;0.80;;
53389;SDS011;39288;42.970;1.524;2022-11-20T03:51:08;6.83;;;3.67;;
53389;SDS011;39288;42.970;1.524;2022-11-20T03:52:09;4.57;;;2.00;;
53389;SDS011;39288;42.970;1.524;2022-11-20T03:53:10;2.33;;;1.90;;
53389;SDS011;39288;42.970;1.524;2022-11-20T03:54:10;1.83;;;1.10;;
53389;SDS011;39288;42.970;1.524;2022-11-20T03:55:11;1.83;;;1.27;;
53389;SDS011;39288;42.970;1.524;2022-11-20T03:56:12;1.63;;;0.90;;
53389;SDS011;39288;42.970;1.524;2022-11-20T03:57:14;3.90;;;1.50;;
53389;SDS011;39288;42.970;1.524;2022-11-20T03:58:15;2.07;;;1.47;;
53389;SDS011;39288;42.970;1.524;2022-11-20T03:59:15;3.07;;;1.10;;
53389;SDS011;39288;42.970;1.524;2022-11-20T04:00:15;1.23;;;1.10;;
53389;SDS011;39288;42.970;1.524;2022-11-20T04:01:19;2.43;;;1.10;;
53389;SDS011;39288;42.970;1.524;2022-11-20T04:02:21;1.80;;;0.77;;
53389;SDS011;39288;42.970;1.524;2022-11-20T04:03:22;3.10;;;0.90;;
53389;SDS011;39288;42.970;1.524;2022-11-20T04:04:22;2.50;;;0.80;;
53389;SDS011;39288;42.970;1.524;2022-11-20T04:05:23;2.20;;;1.23;;
53389;SDS011;39288;42.970;1.524;2022-11-20T04:06:24;3.50;;;1.00;;
53389;SDS011;39288;42.970;1.524;2022-11-20T04:07:26;3.88;;;1.15;;
53389;SDS011;39288;42.970;1.524;2022-11-20T04:08:28;2.60;;;1.17;;
53389;SDS011;39288;42.970;1.524;2022-11-20T04:09:28;3.05;;;1.15;;
53389;SDS011;39288;42.970;1.524;2022-11-20T04:10:29;9.13;;;1.75;;
53389;SDS011;39288;42.970;1.524;2022-11-20T04:11:30;2.83;;;1.42;;
53389;SDS011;39288;42.970;1.524;2022-11-20T04:12:32;4.07;;;1.30;;
53389;SDS011;39288;42.970;1.524;2022-11-20T04:13:33;3.25;;;1.80;;
53389;SDS011;39288;42.970;1.524;2022-11-20T04:14:34;5.17;;;1.97;;
53389;SDS011;39288;42.970;1.524;2022-11-20T04:15:38;3.00;;;1.92;;
53389;SDS011;39288;42.970;1.524;2022-11-20T04:16:44;4.50;;;2.10;;
53389;SDS011;39288;42.970;1.524;2022-11-20T04:17:44;7.68;;;3.00;;
53389;SDS011;39288;42.970;1.524;2022-11-20T04:18:45;12.27;;;4.63;;
53389;SDS011;39288;42.970;1.524;2022-11-20T04:19:45;16.97;;;6.43;;
53389;SDS011;39288;42.970;1.524;2022-11-20T04:20:46;15.80;;;5.40;;
53389;SDS011;39288;42.970;1.524;2022-11-20T04:21:47;14.30;;;5.37;;
53389;SDS011;39288;42.970;1.524;2022-11-20T04:22:47;14.73;;;5.10;;
53389;SDS011;39288;42.970;1.524;2022-11-20T04:23:48;11.90;;;5.77;;
53389;SDS011;39288;42.970;1.524;2022-11-20T04:24:49;6.85;;;2.55;;
53389;SDS011;39288;42.970;1.524;2022-11-20T04:25:49;7.77;;;3.00;;
53389;SDS011;39288;42.970;1.524;2022-11-20T04:26:50;7.73;;;2.73;;
53389;SDS011;39288;42.970;1.524;2022-11-20T04:27:50;5.70;;;1.87;;
53389;SDS011;39288;42.970;1.524;2022-11-20T04:28:51;8.30;;;2.00;;
53389;SDS011;39288;42.970;1.524;2022-11-20T04:29:51;4.47;;;1.70;;
53389;SDS011;39288;42.970;1.524;2022-11-20T04:30:52;2.50;;;1.20;;
53389;SDS011;39288;42.970;1.524;2022-11-20T04:31:53;4.70;;;1.70;;
53389;SDS011;39288;42.970;1.524;2022-11-20T04:32:53;3.67;;;1.80;;
53389;SDS011;39288;42.970;1.524;2022-11-20T04:33:54;5.70;;;2.07;;
53389;SDS011;39288;42.970;1.524;2022-11-20T04:34:54;6.80;;;1.90;;
53389;SDS011;39288;42.970;1.524;2022-11-20T04:35:55;3.63;;;1.63;;
53389;SDS011;39288;42.970;1.524;2022-11-20T04:36:55;2.10;;;1.13;;
53389;SDS011;39288;42.970;1.524;2022-11-20T04:37:56;1.70;;;0.80;;
53389;SDS011;39288;42.970;1.524;2022-11-20T04:38:57;2.10;;;1.00;;
53389;SDS011;39288;42.970;1.524;2022-11-20T04:39:58;4.50;;;1.20;;
53389;SDS011;39288;42.970;1.524;2022-11-20T04:40:59;2.90;;;1.17;;
53389;SDS011;39288;42.970;1.524;2022-11-20T04:42:00;2.05;;;1.20;;
53389;SDS011;39288;42.970;1.524;2022-11-20T04:43:19;4.18;;;1.20;;
53389;SDS011;39288;42.970;1.524;2022-11-20T04:44:20;2.73;;;1.10;;
53389;SDS011;39288;42.970;1.524;2022-11-20T04:45:21;1.87;;;0.97;;
53389;SDS011;39288;42.970;1.524;2022-11-20T04:46:22;2.17;;;0.90;;
53389;SDS011;39288;42.970;1.524;2022-11-20T04:47:22;3.53;;;1.27;;
53389;SDS011;39288;42.970;1.524;2022-11-20T04:48:23;4.83;;;1.30;;
53389;SDS011;39288;42.970;1.524;2022-11-20T04:49:24;3.60;;;1.05;;
53389;SDS011;39288;42.970;1.524;2022-11-20T04:50:28;2.00;;;1.00;;
53389;SDS011;39288;42.970;1.524;2022-11-20T04:51:28;3.47;;;1.23;;
53389;SDS011;39288;42.970;1.524;2022-11-20T04:52:29;3.07;;;1.10;;
53389;SDS011;39288;42.970;1.524;2022-11-20T04:53:29;1.73;;;1.13;;
53389;SDS011;39288;42.970;1.524;2022-11-20T04:54:30;3.13;;;1.03;;
53389;SDS011;39288;42.970;1.524;2022-11-20T04:55:30;2.40;;;0.90;;
53389;SDS011;39288;42.970;1.524;2022-11-20T04:56:31;3.37;;;1.10;;
53389;SDS011;39288;42.970;1.524;2022-11-20T04:57:31;2.60;;;1.10;;
53389;SDS011;39288;42.970;1.524;2022-11-20T04:58:32;1.55;;;0.75;;
53389;SDS011;39288;42.970;1.524;2022-11-20T04:59:33;4.93;;;0.90;;
53389;SDS011;39288;42.970;1.524;2022-11-20T05:00:34;4.07;;;1.00;;
53389;SDS011;39288;42.970;1.524;2022-11-20T05:01:34;2.80;;;0.90;;
53389;SDS011;39288;42.970;1.524;2022-11-20T05:02:35;2.47;;;1.33;;
53389;SDS011;39288;42.970;1.524;2022-11-20T05:03:35;4.90;;;1.03;;
53389;SDS011;39288;42.970;1.524;2022-11-20T05:04:36;2.00;;;1.07;;
53389;SDS011;39288;42.970;1.524;2022-11-20T05:05:36;1.30;;;0.70;;
53389;SDS011;39288;42.970;1.524;2022-11-20T05:06:36;2.57;;;0.70;;
53389;SDS011;39288;42.970;1.524;2022-11-20T05:07:37;1.13;;;0.73;;
53389;SDS011;39288;42.970;1.524;2022-11-20T05:08:37;3.47;;;0.77;;
53389;SDS011;39288;42.970;1.524;2022-11-20T05:09:38;2.13;;;0.70;;
53389;SDS011;39288;42.970;1.524;2022-11-20T05:10:39;4.73;;;0.70;;
53389;SDS011;39288;42.970;1.524;2022-11-20T05:11:39;1.17;;;0.50;;
53389;SDS011;39288;42.970;1.524;2022-11-20T05:12:40;1.83;;;0.60;;
53389;SDS011;39288;42.970;1.524;2022-11-20T05:13:41;0.70;;;0.70;;
53389;SDS011;39288;42.970;1.524;2022-11-20T05:14:41;1.67;;;1.00;;
53389;SDS011;39288;42.970;1.524;2022-11-20T05:15:42;2.73;;;0.80;;
53389;SDS011;39288;42.970;1.524;2022-11-20T05:16:42;3.17;;;0.80;;
53389;SDS011;39288;42.970;1.524;2022-11-20T05:17:49;0.80;;;0.60;;
53389;SDS011;39288;42.970;1.524;2022-11-20T05:18:50;2.58;;;0.90;;
53389;SDS011;39288;42.970;1.524;2022-11-20T05:19:52;2.92;;;0.70;;
53389;SDS011;39288;42.970;1.524;2022-11-20T05:20:58;2.27;;;0.60;;
53389;SDS011;39288;42.970;1.524;2022-11-20T05:21:59;1.42;;;0.65;;
53389;SDS011;39288;42.970;1.524;2022-11-20T05:22:59;2.00;;;0.80;;
53389;SDS011;39288;42.970;1.524;2022-11-20T05:24:00;4.03;;;0.63;;
53389;SDS011;39288;42.970;1.524;2022-11-20T05:25:00;1.40;;;0.70;;
53389;SDS011;39288;42.970;1.524;2022-11-20T05:26:01;3.57;;;0.60;;
53389;SDS011;39288;42.970;1.524;2022-11-20T05:27:02;1.77;;;0.82;;
53389;SDS011;39288;42.970;1.524;2022-11-20T05:28:03;2.47;;;0.70;;
53389;SDS011;39288;42.970;1.524;2022-11-20T05:29:03;1.17;;;0.70;;
53389;SDS011;39288;42.970;1.524;2022-11-20T05:30:04;1.30;;;0.67;;
53389;SDS011;39288;42.970;1.524;2022-11-20T05:31:09;2.08;;;0.63;;
53389;SDS011;39288;42.970;1.524;2022-11-20T05:32:11;2.78;;;0.70;;
53389;SDS011;39288;42.970;1.524;2022-11-20T05:33:11;1.30;;;0.70;;
53389;SDS011;39288;42.970;1.524;2022-11-20T05:34:12;2.03;;;0.90;;
53389;SDS011;39288;42.970;1.524;2022-11-20T05:35:12;0.80;;;0.60;;
53389;SDS011;39288;42.970;1.524;2022-11-20T05:36:13;1.13;;;0.77;;
53389;SDS011;39288;42.970;1.524;2022-11-20T05:37:14;1.95;;;0.70;;
53389;SDS011;39288;42.970;1.524;2022-11-20T05:38:14;1.03;;;0.93;;
53389;SDS011;39288;42.970;1.524;2022-11-20T05:39:15;2.10;;;0.70;;
53389;SDS011;39288;42.970;1.524;2022-11-20T05:40:16;1.93;;;0.77;;
53389;SDS011;39288;42.970;1.524;2022-11-20T05:41:17;2.53;;;0.90;;
53389;SDS011;39288;42.970;1.524;2022-11-20T05:42:18;1.25;;;0.82;;
53389;SDS011;39288;42.970;1.524;2022-11-20T05:44:32;2.55;;;1.08;;
53389;SDS011;39288;42.970;1.524;2022-11-20T05:45:32;2.97;;;1.10;;
53389;SDS011;39288;42.970;1.524;2022-11-20T05:46:33;2.60;;;0.80;;
53389;SDS011;39288;42.970;1.524;2022-11-20T05:47:33;1.60;;;1.00;;
53389;SDS011;39288;42.970;1.524;2022-11-20T05:48:35;3.30;;;0.93;;
53389;SDS011;39288;42.970;1.524;2022-11-20T05:49:36;2.10;;;1.02;;
53389;SDS011;39288;42.970;1.524;2022-11-20T05:50:36;2.10;;;0.90;;
53389;SDS011;39288;42.970;1.524;2022-11-20T05:51:37;1.90;;;0.93;;
53389;SDS011;39288;42.970;1.524;2022-11-20T05:52:37;3.63;;;1.00;;
53389;SDS011;39288;42.970;1.524;2022-11-20T05:53:38;3.10;;;0.70;;
53389;SDS011;39288;42.970;1.524;2022-11-20T05:54:38;2.10;;;0.77;;
53389;SDS011;39288;42.970;1.524;2022-11-20T05:55:39;1.80;;;0.73;;
53389;SDS011;39288;42.970;1.524;2022-11-20T05:56:39;1.13;;;0.63;;
53389;SDS011;39288;42.970;1.524;2022-11-20T05:57:40;1.90;;;0.67;;
53389;SDS011;39288;42.970;1.524;2022-11-20T05:58:40;2.90;;;0.70;;
53389;SDS011;39288;42.970;1.524;2022-11-20T05:59:41;3.80;;;0.60;;
53389;SDS011;39288;42.970;1.524;2022-11-20T06:00:42;0.70;;;0.60;;
53389;SDS011;39288;42.970;1.524;2022-11-20T06:01:42;1.47;;;0.90;;
53389;SDS011;39288;42.970;1.524;2022-11-20T06:02:43;0.85;;;0.60;;
53389;SDS011;39288;42.970;1.524;2022-11-20T06:03:43;2.57;;;0.87;;
53389;SDS011;39288;42.970;1.524;2022-11-20T06:04:47;2.35;;;0.80;;
53389;SDS011;39288;42.970;1.524;2022-11-20T06:05:48;1.55;;;0.68;;
53389;SDS011;39288;42.970;1.524;2022-11-20T06:06:48;2.37;;;0.60;;
53389;SDS011;39288;42.970;1.524;2022-11-20T06:07:52;1.58;;;0.70;;
53389;SDS011;39288;42.970;1.524;2022-11-20T06:08:52;1.73;;;0.60;;
53389;SDS011;39288;42.970;1.524;2022-11-20T06:09:53;2.30;;;1.03;;
53389;SDS011;39288;42.970;1.524;2022-11-20T06:10:53;2.70;;;0.93;;
53389;SDS011;39288;42.970;1.524;2022-11-20T06:11:54;0.83;;;0.73;;
53389;SDS011;39288;42.970;1.524;2022-11-20T06:12:56;3.20;;;1.13;;
53389;SDS011;39288;42.970;1.524;2022-11-20T06:13:57;2.15;;;0.80;;
53389;SDS011;39288;42.970;1.524;2022-11-20T06:14:58;1.03;;;0.77;;
53389;SDS011;39288;42.970;1.524;2022-11-20T06:15:59;1.48;;;0.68;;
53389;SDS011;39288;42.970;1.524;2022-11-20T06:17:00;1.33;;;0.70;;
53389;SDS011;39288;42.970;1.524;2022-11-20T06:18:00;1.07;;;0.70;;
53389;SDS011;39288;42.970;1.524;2022-11-20T06:19:01;2.33;;;0.57;;
53389;SDS011;39288;42.970;1.524;2022-11-20T06:20:01;3.53;;;0.80;;
53389;SDS011;39288;42.970;1.524;2022-11-20T06:21:06;2.00;;;0.87;;